Airfield :
LOGIN :

Register | Disclaimer

   EN    FR    IT 

 










Legend :    VFR   Marginal VFR   IFR   Intensive IFR   Very Intensive IFR
Visi :
Ceiling :
>= 8 km
>= 3000ft
5 to 8 km
1000 to 3000 ft
1500m to 5 km
500 to 1000 ft
800 to 1500m
200 to 500 ft
< 800m
< 200 ft
Symbols :   Thunderstorms  Fog  Heavy snow  Heavy precipitations  Wind > 20 kt
SIGMETs :     Misc.  Thunderstorms  Icing  Turbulence  Mountain Waves  Volcanic Ashes






- Airport Elevation : 32 ft
- IATA code : LKZ


EGUL - RAF Lakenheath

CURRENT METAR :
  • 281456Z AUTO 26014G20KT 9999 FEW041 07/01 A2936 RMK AO2 PK WND 25027/02 DZB1356E02 SLP946 P0000 60000 T00710005 52006 $

EXPIRED METARs :
  • 281356Z AUTO 25019G23KT 9999 -DZ FEW029 FEW034 07/01 A2936 RMK AO2 DZB55 SLP946 P0000 T00690010 $
  • 281256Z 25018G22KT 9999 FEW030 BKN080 05/01 A2935 RMK AO2A SLP943 T00500006 $

TAF TAF EGUL
Valid from the 28 at 13:00 until the 29 at 19:00 UTC


281300Z 2813/2919 25012G20KT 9999 SCT020 BKN060 QNH2935INS
BECMG 2818/2819 25014KT 9999 SCT020 BKN030 QNH2941INS
BECMG 2906/2907 25015G20KT 9999 SCT020 BKN030 QNH2963INS TX05/2814Z TN00/2908Z



MET'MAP, your aeronautical weather chart ! - Copyright ORBIFLY December 2007 - Disclaimer

ORBIFLY MET'MAP TEAM :

Programming & Development : Alexandra Zaïnal
Concept & original design : Baudouin d'Aumeries
Assistance for programming : Marc-Olivier Méhu
Technical & hardware support : Manuel Goepfert

Contact : metmap@orbifly.com




SOURCES & CREDITS :

   NOAA